Time;durP1;ratioP1;P1;durP2;ratioP2;P2;SDS_P1;SDS_P2;PMS_P1;PMS_P2;Temp;Humidity;BMP_temperature;BMP_pressure;BME280_temperature;BME280_humidity;BME280_pressure;Samples;Min_cycle;Max_cycle;Signal;HPM_P1;HPM_P2
2022/10/28 00:00:24;;;;;;;14.68;3.45;;;14.00;94.50;;;;;;5011152;28;20408;-69
2022/10/28 00:02:49;;;;;;;11.70;3.08;;;14.00;94.30;;;;;;5020851;28;20035;-68
2022/10/28 00:05:18;;;;;;;10.98;3.33;;;13.90;94.50;;;;;;5012767;28;20037;-69
2022/10/28 00:07:47;;;;;;;9.30;3.28;;;13.90;95.00;;;;;;5006453;28;20033;-68
2022/10/28 00:10:12;;;;;;;12.23;2.95;;;13.70;95.50;;;;;;5016360;28;20108;-69
2022/10/28 00:12:38;;;;;;;11.27;3.28;;;13.70;95.80;;;;;;5024264;28;20355;-68
2022/10/28 00:15:05;;;;;;;12.30;3.03;;;13.70;95.90;;;;;;5017455;28;20033;-69
2022/10/28 00:17:31;;;;;;;11.10;3.25;;;13.60;96.10;;;;;;5018935;28;20025;-69
2022/10/28 00:19:57;;;;;;;11.38;3.20;;;13.50;96.30;;;;;;5014132;28;20089;-69
2022/10/28 00:22:22;;;;;;;13.15;3.85;;;13.50;96.20;;;;;;5022665;28;20021;-68
2022/10/28 00:24:48;;;;;;;15.05;3.05;;;13.80;94.90;;;;;;5022209;28;20426;-69
2022/10/28 00:27:13;;;;;;;14.95;2.60;;;14.10;94.20;;;;;;5010571;28;20121;-68
2022/10/28 00:29:39;;;;;;;12.77;2.85;;;14.50;92.80;;;;;;5012049;28;20449;-68
2022/10/28 00:32:05;;;;;;;9.77;2.47;;;14.70;91.70;;;;;;5012743;28;20045;-68
2022/10/28 00:34:30;;;;;;;12.50;3.25;;;14.80;91.10;;;;;;5014145;28;20139;-68
2022/10/28 00:36:57;;;;;;;13.88;3.05;;;15.00;90.30;;;;;;5014123;28;20058;-68
2022/10/28 00:39:24;;;;;;;11.75;2.72;;;15.10;90.40;;;;;;5016296;28;20034;-68
2022/10/28 00:42:02;;;;;;;10.88;3.38;;;15.30;89.10;;;;;;5024249;28;20036;-69
2022/10/28 00:44:46;;;;;;;11.60;2.78;;;15.20;89.80;;;;;;5014683;28;20291;-68
2022/10/28 00:47:36;;;;;;;14.65;2.85;;;15.00;89.70;;;;;;5017274;28;20060;-68
2022/10/28 00:50:16;;;;;;;14.40;3.38;;;15.30;88.80;;;;;;5007989;28;20030;-68
2022/10/28 00:52:49;;;;;;;11.70;2.47;;;15.60;87.40;;;;;;5008995;28;20344;-68
2022/10/28 00:55:18;;;;;;;12.18;2.88;;;15.70;87.30;;;;;;5003889;28;20022;-68
2022/10/28 00:57:45;;;;;;;14.80;3.00;;;15.70;87.90;;;;;;5006500;28;20037;-68
2022/10/28 01:00:11;;;;;;;12.68;3.03;;;15.50;89.30;;;;;;5020932;28;20034;-67
2022/10/28 01:02:47;;;;;;;7.00;2.95;;;15.30;89.20;;;;;;5014749;28;20099;-67
2022/10/28 01:05:17;;;;;;;12.35;2.47;;;15.10;90.00;;;;;;5014374;28;20029;-67
2022/10/28 01:07:44;;;;;;;13.20;2.40;;;15.20;89.90;;;;;;5015549;28;20419;-67
2022/10/28 01:10:12;;;;;;;9.68;2.83;;;15.30;88.90;;;;;;5022557;28;20030;-67
2022/10/28 01:12:46;;;;;;;13.98;2.50;;;15.30;89.70;;;;;;5019353;28;20029;-68
2022/10/28 01:16:06;;;;;;;12.23;2.65;;;15.20;90.00;;;;;;5001166;28;20041;-68
2022/10/28 01:19:09;;;;;;;11.20;3.00;;;15.10;90.80;;;;;;5000068;28;20038;-68
2022/10/28 01:22:01;;;;;;;15.15;3.38;;;14.70;91.70;;;;;;4999062;28;20034;-68
2022/10/28 01:24:54;;;;;;;11.40;3.13;;;14.50;92.90;;;;;;5019371;28;20022;-67
2022/10/28 01:28:05;;;;;;;9.50;2.63;;;14.40;93.40;;;;;;5007789;28;20022;-69
2022/10/28 01:30:56;;;;;;;12.77;3.40;;;14.10;94.20;;;;;;5018544;28;20037;-68
2022/10/28 01:33:47;;;;;;;14.13;3.17;;;13.90;94.70;;;;;;5008009;28;20034;-67
2022/10/28 01:36:41;;;;;;;14.65;3.58;;;13.90;95.20;;;;;;5014358;28;20133;-69
2022/10/28 01:39:23;;;;;;;14.50;2.97;;;13.80;95.30;;;;;;5003495;28;20030;-68
2022/10/28 01:41:49;;;;;;;11.73;3.15;;;13.80;95.10;;;;;;5015839;28;20076;-68
2022/10/28 01:44:26;;;;;;;9.18;2.63;;;13.80;95.10;;;;;;5013722;28;20361;-68
2022/10/28 01:47:02;;;;;;;9.45;2.85;;;13.90;94.50;;;;;;5011836;28;20326;-68
2022/10/28 01:49:51;;;;;;;10.15;2.38;;;14.10;94.10;;;;;;5023321;28;20030;-68
2022/10/28 01:52:22;;;;;;;10.85;2.67;;;14.20;93.90;;;;;;5015004;28;20048;-68
2022/10/28 01:54:54;;;;;;;10.88;2.92;;;14.30;93.30;;;;;;5019986;28;20203;-67
2022/10/28 01:57:22;;;;;;;10.45;3.13;;;14.40;92.50;;;;;;5028614;28;20453;-68
2022/10/28 01:59:49;;;;;;;10.00;2.42;;;14.70;91.10;;;;;;5021780;28;20033;-68
2022/10/28 02:02:16;;;;;;;14.13;3.08;;;14.80;90.80;;;;;;5008547;28;20023;-68
2022/10/28 02:04:42;;;;;;;11.70;2.15;;;15.00;89.70;;;;;;5025049;28;20022;-69
2022/10/28 02:07:07;;;;;;;11.98;3.13;;;15.30;88.60;;;;;;5018879;28;20295;-68
2022/10/28 02:09:45;;;;;;;9.35;2.28;;;15.40;88.80;;;;;;5019561;28;20422;-68
2022/10/28 02:12:20;;;;;;;10.85;2.55;;;15.30;88.90;;;;;;5016447;28;20091;-68
2022/10/28 02:14:59;;;;;;;17.20;2.70;;;15.30;88.80;;;;;;5010412;28;20030;-68
2022/10/28 02:17:41;;;;;;;17.20;2.78;;;15.50;88.00;;;;;;5003348;28;20034;-68
2022/10/28 02:20:12;;;;;;;8.00;2.20;;;15.60;87.50;;;;;;5020339;28;20025;-68
2022/10/28 02:22:44;;;;;;;13.07;3.17;;;15.70;87.20;;;;;;5013769;28;20021;-68
2022/10/28 02:25:31;;;;;;;12.73;2.65;;;15.90;86.30;;;;;;5013708;28;20032;-69
2022/10/28 02:28:05;;;;;;;10.77;2.20;;;16.30;84.70;;;;;;5008794;28;20077;-68
2022/10/28 02:30:46;;;;;;;12.98;2.92;;;16.70;83.10;;;;;;5007268;28;20543;-68
2022/10/28 02:33:16;;;;;;;10.88;2.63;;;17.00;82.40;;;;;;5006743;28;20124;-69
2022/10/28 02:35:55;;;;;;;9.25;2.40;;;16.90;82.30;;;;;;5012544;28;20041;-68
2022/10/28 02:38:26;;;;;;;11.10;2.58;;;17.00;83.10;;;;;;5048128;28;20048;-67
2022/10/28 02:40:58;;;;;;;14.88;2.90;;;16.90;81.50;;;;;;5011052;28;20053;-67
2022/10/28 02:43:26;;;;;;;10.50;2.05;;;17.00;82.80;;;;;;5008732;28;20014;-68
2022/10/28 02:45:57;;;;;;;9.15;2.28;;;16.90;82.00;;;;;;5009741;28;20334;-68
2022/10/28 02:48:36;;;;;;;8.88;2.28;;;16.70;83.40;;;;;;5043601;28;20330;-67
2022/10/28 02:51:10;;;;;;;11.90;2.50;;;16.30;84.50;;;;;;5008763;28;20026;-67
2022/10/28 02:54:08;;;;;;;8.48;2.22;;;16.00;85.70;;;;;;5012676;28;20330;-68
2022/10/28 02:56:41;;;;;;;14.73;3.15;;;15.80;86.40;;;;;;4990292;28;20041;-68
2022/10/28 02:59:13;;;;;;;9.93;2.95;;;15.60;87.60;;;;;;5005377;28;20030;-68
2022/10/28 03:01:42;;;;;;;12.25;2.85;;;15.40;89.20;;;;;;5018770;28;20029;-67
2022/10/28 03:04:07;;;;;;;11.05;2.65;;;15.10;90.10;;;;;;5014302;28;20357;-68
2022/10/28 03:06:33;;;;;;;14.30;2.80;;;14.80;91.00;;;;;;5015339;28;20072;-68
2022/10/28 03:08:59;;;;;;;10.60;2.30;;;14.50;92.10;;;;;;5029643;28;20034;-68
2022/10/28 03:11:24;;;;;;;11.05;2.72;;;14.20;93.10;;;;;;5005796;28;20080;-68
2022/10/28 03:13:50;;;;;;;11.07;3.20;;;14.00;93.80;;;;;;5003601;28;20069;-67
2022/10/28 03:16:16;;;;;;;9.38;2.72;;;13.90;94.60;;;;;;5014432;28;20423;-67
2022/10/28 03:18:42;;;;;;;9.98;2.50;;;13.70;95.30;;;;;;5014331;28;20438;-67
2022/10/28 03:21:09;;;;;;;13.38;2.67;;;13.60;95.70;;;;;;5011534;28;20108;-68
2022/10/28 03:23:35;;;;;;;11.35;2.55;;;13.70;95.50;;;;;;5008236;28;20418;-68
2022/10/28 03:26:01;;;;;;;11.00;2.67;;;13.80;95.30;;;;;;5012975;28;20072;-68
2022/10/28 03:28:35;;;;;;;8.82;1.83;;;13.90;94.40;;;;;;5012926;28;20037;-68
2022/10/28 03:31:01;;;;;;;9.40;2.60;;;14.40;91.70;;;;;;5008714;28;20084;-68
2022/10/28 03:33:26;;;;;;;10.20;2.03;;;14.90;89.00;;;;;;5014549;28;20427;-68
2022/10/28 03:35:52;;;;;;;10.32;2.25;;;15.70;85.80;;;;;;5014888;28;20032;-68
2022/10/28 03:38:20;;;;;;;6.15;1.55;;;16.10;84.60;;;;;;5011887;28;20330;-68
2022/10/28 03:40:52;;;;;;;8.60;2.00;;;16.80;81.50;;;;;;5011093;28;20038;-68
2022/10/28 03:43:20;;;;;;;7.80;1.95;;;17.30;79.60;;;;;;5013921;28;20065;-68
2022/10/28 03:45:48;;;;;;;10.57;2.00;;;17.70;79.10;;;;;;5008664;28;20091;-67
2022/10/28 03:48:14;;;;;;;7.50;2.10;;;17.70;78.50;;;;;;5021141;28;20030;-68
2022/10/28 03:50:42;;;;;;;11.80;2.45;;;17.80;77.70;;;;;;5016102;28;20037;-69
2022/10/28 03:53:11;;;;;;;11.85;1.80;;;17.80;77.80;;;;;;5015469;28;20033;-69
2022/10/28 03:55:37;;;;;;;7.60;1.92;;;17.90;76.60;;;;;;5004885;28;20027;-67
2022/10/28 03:58:02;;;;;;;7.85;1.63;;;18.00;77.00;;;;;;5011583;28;20033;-67
2022/10/28 04:00:31;;;;;;;9.40;1.88;;;17.90;77.10;;;;;;5006204;28;20057;-67
2022/10/28 04:02:57;;;;;;;10.25;2.10;;;17.80;77.50;;;;;;5009795;28;20026;-67
2022/10/28 04:05:23;;;;;;;9.82;2.72;;;17.90;77.30;;;;;;5016510;28;20425;-67
2022/10/28 04:07:48;;;;;;;10.73;1.70;;;17.90;76.40;;;;;;5012226;28;20022;-69
2022/10/28 04:10:14;;;;;;;6.45;1.92;;;18.00;76.90;;;;;;5015415;28;20137;-67
2022/10/28 04:12:41;;;;;;;7.47;2.00;;;18.10;75.90;;;;;;5011943;28;20234;-67
2022/10/28 04:15:07;;;;;;;12.05;2.20;;;18.10;75.60;;;;;;5012060;28;20030;-67
2022/10/28 04:17:36;;;;;;;9.65;2.30;;;18.30;74.80;;;;;;5015750;28;20037;-68
2022/10/28 04:20:02;;;;;;;12.15;2.10;;;18.50;74.20;;;;;;5014568;28;20034;-67
2022/10/28 04:22:27;;;;;;;5.25;1.50;;;18.60;73.50;;;;;;5017902;28;20030;-68
2022/10/28 04:24:53;;;;;;;7.35;1.70;;;18.80;73.60;;;;;;5019202;28;20060;-68
2022/10/28 04:27:19;;;;;;;6.60;1.85;;;18.80;73.20;;;;;;5014664;28;20026;-68
2022/10/28 04:29:45;;;;;;;13.82;2.50;;;18.90;72.30;;;;;;5025273;28;20426;-68
2022/10/28 04:32:10;;;;;;;7.05;1.98;;;19.00;72.00;;;;;;5022101;28;20029;-68
2022/10/28 04:34:36;;;;;;;10.00;1.92;;;19.10;72.20;;;;;;5010820;28;20022;-68
2022/10/28 04:37:02;;;;;;;9.52;1.95;;;19.10;72.30;;;;;;5023817;28;20041;-68
2022/10/28 04:39:30;;;;;;;8.18;1.90;;;19.10;72.20;;;;;;5015169;28;20072;-68
2022/10/28 04:41:56;;;;;;;8.27;1.70;;;19.10;72.20;;;;;;5014804;28;20018;-68
2022/10/28 04:44:21;;;;;;;6.65;1.80;;;19.20;71.40;;;;;;5004207;28;20440;-68
2022/10/28 04:46:47;;;;;;;10.15;2.63;;;19.30;71.60;;;;;;5019762;28;20032;-68
2022/10/28 04:49:12;;;;;;;8.00;2.22;;;19.30;71.50;;;;;;5016952;28;20128;-68
2022/10/28 04:51:38;;;;;;;6.43;1.63;;;19.40;70.90;;;;;;5013283;28;20040;-68
2022/10/28 04:54:04;;;;;;;7.03;2.05;;;19.50;69.90;;;;;;5021346;28;20048;-68
2022/10/28 04:56:32;;;;;;;8.30;1.90;;;19.60;70.00;;;;;;5016311;28;20030;-69
2022/10/28 04:58:57;;;;;;;9.10;2.03;;;19.80;69.20;;;;;;5021746;28;20296;-68
2022/10/28 05:01:28;;;;;;;7.53;1.83;;;19.90;69.20;;;;;;5014840;28;20030;-68
2022/10/28 05:03:57;;;;;;;10.23;2.20;;;19.90;69.20;;;;;;5020661;28;20030;-68
2022/10/28 05:06:22;;;;;;;6.38;1.98;;;19.90;68.80;;;;;;5013312;28;20455;-68
2022/10/28 05:08:51;;;;;;;9.82;2.60;;;20.00;68.50;;;;;;5013173;28;20105;-68
2022/10/28 05:11:16;;;;;;;7.30;1.95;;;20.00;68.20;;;;;;5014807;28;20101;-68
2022/10/28 05:13:45;;;;;;;10.23;2.00;;;20.00;68.10;;;;;;5020557;28;20107;-68
2022/10/28 05:16:11;;;;;;;8.18;2.17;;;20.00;68.60;;;;;;5007526;28;20022;-68
2022/10/28 05:18:36;;;;;;;7.82;2.55;;;19.90;68.40;;;;;;5017258;28;20310;-68
2022/10/28 05:21:02;;;;;;;8.40;2.40;;;19.90;68.50;;;;;;5009494;28;20088;-69
2022/10/28 05:23:28;;;;;;;7.65;2.30;;;19.90;69.00;;;;;;5008283;28;20441;-68
2022/10/28 05:25:53;;;;;;;6.68;1.70;;;19.80;69.60;;;;;;5014369;28;20326;-68
2022/10/28 05:28:20;;;;;;;9.57;2.65;;;19.60;70.70;;;;;;5015074;28;20021;-68
2022/10/28 05:30:46;;;;;;;7.68;2.08;;;19.40;71.60;;;;;;5022710;28;20308;-68
2022/10/28 05:33:12;;;;;;;9.60;2.55;;;19.20;72.00;;;;;;5010508;28;20109;-68
2022/10/28 05:35:38;;;;;;;6.72;2.20;;;19.00;73.20;;;;;;5018560;28;20068;-68
2022/10/28 05:38:04;;;;;;;14.43;2.28;;;18.80;74.10;;;;;;5027320;28;20037;-68
2022/10/28 05:40:32;;;;;;;10.93;2.22;;;18.60;75.50;;;;;;5022959;28;20059;-68
2022/10/28 05:42:58;;;;;;;8.15;2.67;;;18.30;77.10;;;;;;5023546;28;20026;-68
2022/10/28 05:45:24;;;;;;;6.13;2.47;;;18.00;78.20;;;;;;5011239;28;20028;-68
2022/10/28 05:47:50;;;;;;;8.13;2.58;;;17.70;80.10;;;;;;5022197;28;20030;-68
2022/10/28 05:50:19;;;;;;;9.65;4.30;;;17.70;79.80;;;;;;5005430;28;20026;-68
2022/10/28 05:52:56;;;;;;;11.52;3.20;;;17.40;83.30;;;;;;5017213;28;20112;-69
2022/10/28 05:55:24;;;;;;;11.88;3.17;;;17.00;84.40;;;;;;5030525;28;20029;-68
2022/10/28 05:57:51;;;;;;;8.20;3.20;;;16.90;81.60;;;;;;5014063;28;20034;-68
2022/10/28 06:00:22;;;;;;;8.13;2.80;;;17.00;80.10;;;;;;5006055;28;20067;-68
2022/10/28 06:02:48;;;;;;;5.63;1.80;;;17.10;78.60;;;;;;5030374;28;20036;-68
2022/10/28 06:05:14;;;;;;;7.70;1.60;;;17.60;76.70;;;;;;5020022;28;20319;-68
2022/10/28 06:07:40;;;;;;;10.80;1.50;;;18.30;72.40;;;;;;4995781;28;20049;-68
2022/10/28 06:10:08;;;;;;;11.75;1.80;;;18.90;70.60;;;;;;4993370;28;20053;-68
2022/10/28 06:12:34;;;;;;;7.63;1.50;;;19.20;70.00;;;;;;4997966;28;20385;-68
2022/10/28 06:14:59;;;;;;;7.13;1.95;;;19.50;69.40;;;;;;4995759;28;20056;-68
2022/10/28 06:17:25;;;;;;;8.50;1.80;;;19.70;67.90;;;;;;4997061;28;20600;-68
2022/10/28 06:19:54;;;;;;;12.77;2.28;;;19.90;67.60;;;;;;4995724;28;20106;-68
2022/10/28 06:22:22;;;;;;;10.55;2.03;;;20.00;67.90;;;;;;5000950;28;20334;-68
2022/10/28 06:24:47;;;;;;;5.07;1.40;;;20.00;67.50;;;;;;4996233;28;20300;-68
2022/10/28 06:27:13;;;;;;;8.95;1.88;;;20.00;67.60;;;;;;5013761;28;20041;-68
2022/10/28 06:29:39;;;;;;;8.20;1.88;;;20.00;67.70;;;;;;5015459;28;20034;-68
2022/10/28 06:32:08;;;;;;;7.93;1.80;;;20.00;67.30;;;;;;5016253;28;20037;-69
2022/10/28 06:34:38;;;;;;;9.85;1.55;;;20.20;67.20;;;;;;5016262;28;20033;-68
2022/10/28 06:37:05;;;;;;;9.73;1.73;;;20.20;66.50;;;;;;5015977;28;20051;-69
2022/10/28 06:39:31;;;;;;;7.18;1.95;;;20.20;66.30;;;;;;5015563;28;20402;-68
2022/10/28 06:42:00;;;;;;;6.10;1.75;;;20.30;66.30;;;;;;5011958;28;20109;-68
2022/10/28 06:44:28;;;;;;;9.13;1.67;;;20.30;66.30;;;;;;5003954;28;20037;-68
2022/10/28 06:46:56;;;;;;;6.57;1.63;;;20.30;66.00;;;;;;5007008;28;20031;-68
2022/10/28 06:49:24;;;;;;;9.00;1.67;;;20.40;65.90;;;;;;5025040;28;20312;-68
2022/10/28 06:51:50;;;;;;;8.45;1.65;;;20.40;66.10;;;;;;5003143;28;20061;-67
2022/10/28 06:54:19;;;;;;;7.63;1.77;;;20.50;65.90;;;;;;5001414;28;20064;-67
2022/10/28 06:56:46;;;;;;;8.55;1.70;;;20.60;65.20;;;;;;5004399;28;20761;-67
2022/10/28 06:59:12;;;;;;;9.75;1.70;;;20.70;65.00;;;;;;5008272;28;20034;-67
2022/10/28 07:01:37;;;;;;;5.05;1.50;;;20.80;65.00;;;;;;5012777;28;20033;-69
2022/10/28 07:04:03;;;;;;;8.68;1.55;;;20.80;65.50;;;;;;4996834;28;20036;-68
2022/10/28 07:06:29;;;;;;;9.65;1.60;;;20.80;65.00;;;;;;5007400;28;20128;-69
2022/10/28 07:08:54;;;;;;;8.65;2.20;;;20.80;64.70;;;;;;5015180;28;20076;-68
2022/10/28 07:11:20;;;;;;;5.82;1.75;;;20.90;65.60;;;;;;5012364;28;20100;-68
2022/10/28 07:13:46;;;;;;;10.45;1.95;;;20.90;65.30;;;;;;5014603;28;20050;-69
2022/10/28 07:16:11;;;;;;;6.40;1.52;;;20.90;64.70;;;;;;5020278;28;20068;-69
2022/10/28 07:18:37;;;;;;;6.82;1.58;;;21.10;64.10;;;;;;5018040;28;20088;-68
2022/10/28 07:21:06;;;;;;;7.82;1.50;;;21.20;64.50;;;;;;5017465;28;20080;-68
2022/10/28 07:23:33;;;;;;;9.73;2.08;;;21.30;64.50;;;;;;5015828;28;20033;-69
2022/10/28 07:25:58;;;;;;;8.38;1.40;;;21.30;63.60;;;;;;5018755;28;20113;-68
2022/10/28 07:28:26;;;;;;;6.07;1.42;;;21.30;63.60;;;;;;5025727;28;20109;-68
2022/10/28 07:30:51;;;;;;;5.90;1.95;;;21.30;63.90;;;;;;5019288;28;20108;-68
2022/10/28 07:33:17;;;;;;;8.90;2.10;;;21.30;64.20;;;;;;4991351;28;20034;-68
2022/10/28 07:35:43;;;;;;;11.07;1.70;;;21.30;64.40;;;;;;4997688;28;20042;-68
2022/10/28 07:38:10;;;;;;;9.35;1.63;;;21.20;64.30;;;;;;5005607;28;20659;-67
2022/10/28 07:40:35;;;;;;;12.73;1.75;;;21.30;64.00;;;;;;4998888;28;20026;-67
2022/10/28 07:43:01;;;;;;;8.73;1.77;;;21.30;64.50;;;;;;4997040;28;20026;-68
2022/10/28 07:45:27;;;;;;;9.05;2.17;;;21.30;64.20;;;;;;5002711;28;20042;-68
2022/10/28 07:47:52;;;;;;;9.27;1.58;;;21.20;64.10;;;;;;4997798;28;20032;-68
2022/10/28 07:50:18;;;;;;;4.97;1.50;;;21.20;64.90;;;;;;4993849;28;20022;-68
2022/10/28 07:52:44;;;;;;;6.82;1.60;;;21.20;64.80;;;;;;5001852;28;20041;-68
2022/10/28 07:55:11;;;;;;;7.30;1.75;;;21.20;64.90;;;;;;4998871;28;20041;-68
2022/10/28 07:57:37;;;;;;;7.03;1.80;;;21.20;64.70;;;;;;5001924;28;20029;-68
2022/10/28 08:00:05;;;;;;;9.80;1.88;;;21.30;64.90;;;;;;5000608;28;20409;-68
2022/10/28 08:02:31;;;;;;;9.40;1.80;;;21.20;65.50;;;;;;4995609;28;20025;-68
2022/10/28 08:04:58;;;;;;;12.40;2.30;;;21.30;64.80;;;;;;4991344;28;20034;-68
2022/10/28 08:07:24;;;;;;;7.95;1.90;;;21.40;64.60;;;;;;4991957;28;20118;-68
2022/10/28 08:09:51;;;;;;;7.10;1.67;;;21.50;64.70;;;;;;4991973;28;20346;-68
2022/10/28 08:12:20;;;;;;;6.53;1.50;;;21.50;64.30;;;;;;5015888;28;20101;-68
2022/10/28 08:14:48;;;;;;;9.13;1.45;;;21.70;65.30;;;;;;5027341;28;20083;-68
2022/10/28 08:17:14;;;;;;;10.30;1.83;;;21.80;64.30;;;;;;5030379;28;20044;-68
2022/10/28 08:19:40;;;;;;;10.02;1.70;;;22.00;64.30;;;;;;5009010;28;20026;-68
2022/10/28 08:22:06;;;;;;;9.55;2.03;;;22.10;62.60;;;;;;5011575;28;20481;-68
2022/10/28 08:24:32;;;;;;;9.35;1.80;;;22.20;63.50;;;;;;4996919;28;20326;-67
2022/10/28 08:26:57;;;;;;;9.02;1.70;;;22.10;63.40;;;;;;5000276;28;20018;-68
2022/10/28 08:29:23;;;;;;;6.47;1.50;;;22.10;63.50;;;;;;5001520;28;20362;-68
2022/10/28 08:31:49;;;;;;;6.55;1.77;;;22.10;64.50;;;;;;5002451;28;20030;-68
2022/10/28 08:34:14;;;;;;;6.00;1.92;;;22.10;64.20;;;;;;5016768;28;20056;-68
2022/10/28 08:36:40;;;;;;;9.10;2.28;;;22.00;64.20;;;;;;5017074;28;20497;-68
2022/10/28 08:39:06;;;;;;;11.57;1.95;;;22.10;63.70;;;;;;5005838;28;20438;-67
2022/10/28 08:42:13;;;;;;;7.60;2.10;;;22.20;63.40;;;;;;5019546;28;20109;-67
2022/10/28 08:45:09;;;;;;;12.18;1.80;;;22.30;63.80;;;;;;5015308;28;20076;-67
2022/10/28 08:48:16;;;;;;;6.95;1.83;;;22.40;62.80;;;;;;5022790;28;20018;-67
2022/10/28 08:50:53;;;;;;;10.68;2.00;;;22.60;62.40;;;;;;5034165;28;20069;-67
2022/10/28 08:53:29;;;;;;;8.32;1.90;;;22.80;62.50;;;;;;5017816;28;20037;-67
2022/10/28 08:56:13;;;;;;;8.63;2.28;;;22.90;62.20;;;;;;5026792;28;20437;-67
2022/10/28 08:58:39;;;;;;;7.00;1.85;;;23.00;63.10;;;;;;5016426;28;20052;-68
2022/10/28 09:01:18;;;;;;;9.57;1.90;;;23.10;61.70;;;;;;5032197;28;20037;-67
2022/10/28 09:03:46;;;;;;;8.80;1.90;;;23.20;61.90;;;;;;5030045;28;20029;-67
2022/10/28 09:06:12;;;;;;;11.05;2.20;;;23.20;61.30;;;;;;5035593;28;20018;-67
2022/10/28 09:08:46;;;;;;;11.27;1.90;;;23.20;62.60;;;;;;5035667;28;20432;-68
2022/10/28 09:11:42;;;;;;;7.40;1.58;;;23.20;61.40;;;;;;5034389;28;20036;-68
2022/10/28 09:14:25;;;;;;;6.68;1.50;;;23.40;62.40;;;;;;5033481;28;20030;-67
2022/10/28 09:17:17;;;;;;;7.40;1.85;;;23.50;61.60;;;;;;5032337;28;20031;-67
2022/10/28 09:20:03;;;;;;;5.85;2.00;;;23.60;61.40;;;;;;5021196;28;20037;-67
2022/10/28 09:22:34;;;;;;;5.97;1.73;;;23.60;61.70;;;;;;5028498;28;20017;-67
2022/10/28 09:25:26;;;;;;;8.77;2.15;;;23.60;61.40;;;;;;5035253;28;20030;-68
2022/10/28 09:27:51;;;;;;;11.85;2.47;;;23.50;62.30;;;;;;5009552;28;20052;-67
2022/10/28 09:30:19;;;;;;;9.52;2.40;;;23.40;62.30;;;;;;5036212;28;20033;-68
2022/10/28 09:33:00;;;;;;;9.70;2.45;;;23.40;61.90;;;;;;5035480;28;20025;-67
2022/10/28 09:35:29;;;;;;;10.65;2.20;;;23.40;60.80;;;;;;5026236;28;20036;-68
2022/10/28 09:38:18;;;;;;;11.60;2.38;;;23.60;62.70;;;;;;5021926;28;20397;-67
2022/10/28 09:40:51;;;;;;;11.65;1.80;;;23.70;61.80;;;;;;5028484;28;20054;-67
2022/10/28 09:43:33;;;;;;;9.80;2.20;;;24.00;63.00;;;;;;5023802;28;20045;-68
2022/10/28 09:46:06;;;;;;;10.50;2.35;;;24.10;61.50;;;;;;5032486;28;20032;-67
2022/10/28 09:49:01;;;;;;;;;;;24.10;62.00;;;;;;5029606;28;20052;-67
2022/10/28 09:52:03;;;;;;;11.15;1.90;;;24.10;61.90;;;;;;5022672;28;19909;-66
2022/10/28 09:54:36;;;;;;;12.10;2.65;;;24.20;61.60;;;;;;4994454;28;20379;-67
2022/10/28 09:57:03;;;;;;;10.13;2.03;;;24.40;61.20;;;;;;5026445;28;20034;-68
2022/10/28 09:59:28;;;;;;;8.88;1.98;;;24.50;61.30;;;;;;5033437;28;20311;-68
2022/10/28 10:01:54;;;;;;;15.98;2.58;;;24.70;62.20;;;;;;5033482;28;20029;-68
2022/10/28 10:04:22;;;;;;;7.70;1.98;;;24.90;60.40;;;;;;5030268;28;20084;-68
2022/10/28 10:07:03;;;;;;;8.68;2.28;;;25.10;60.80;;;;;;5034842;28;20018;-68
2022/10/28 10:09:31;;;;;;;8.55;2.53;;;25.30;59.40;;;;;;5035585;28;20029;-68
2022/10/28 10:12:08;;;;;;;6.15;1.70;;;25.30;59.90;;;;;;5023928;28;20030;-68
2022/10/28 10:14:55;;;;;;;11.20;2.22;;;25.40;58.70;;;;;;5017009;28;20032;-68
2022/10/28 10:17:25;;;;;;;15.00;2.75;;;25.30;60.70;;;;;;5017069;28;20038;-68
2022/10/28 10:20:13;;;;;;;20.90;3.08;;;25.30;61.80;;;;;;5016829;28;20026;-68
2022/10/28 10:22:41;;;;;;;17.38;2.35;;;25.10;59.60;;;;;;5015735;28;20423;-68
2022/10/28 10:25:19;;;;;;;34.88;4.47;;;25.10;58.90;;;;;;5013101;28;20053;-68
2022/10/28 10:27:56;;;;;;;24.42;3.35;;;25.20;59.80;;;;;;5012817;28;20028;-68
2022/10/28 10:30:28;;;;;;;11.38;2.50;;;25.30;59.00;;;;;;5014958;28;20030;-68
2022/10/28 10:32:54;;;;;;;12.27;2.10;;;25.50;58.50;;;;;;5015967;28;20034;-68
2022/10/28 10:35:27;;;;;;;9.05;2.13;;;25.80;59.40;;;;;;5033931;28;20021;-68
2022/10/28 10:37:55;;;;;;;11.30;2.08;;;26.50;59.10;;;;;;5036105;28;20052;-68
2022/10/28 10:40:34;;;;;;;14.57;2.45;;;27.50;57.40;;;;;;5035182;28;20034;-68
2022/10/28 10:43:28;;;;;;;10.25;2.15;;;28.50;53.20;;;;;;5015947;28;20028;-68
2022/10/28 10:46:01;;;;;;;9.60;1.90;;;28.90;54.20;;;;;;5016572;28;20029;-68
2022/10/28 10:48:33;;;;;;;10.82;2.08;;;28.20;53.30;;;;;;5016436;28;20026;-68
2022/10/28 10:51:23;;;;;;;9.30;2.42;;;27.70;53.20;;;;;;5015339;28;20030;-68
2022/10/28 10:53:53;;;;;;;10.23;2.28;;;27.50;53.10;;;;;;5016474;28;20026;-68
2022/10/28 10:56:30;;;;;;;8.65;1.80;;;27.60;52.80;;;;;;5015095;28;20030;-68
2022/10/28 10:59:02;;;;;;;11.43;2.45;;;27.50;52.70;;;;;;5015243;28;20037;-68
2022/10/28 11:01:34;;;;;;;10.20;2.45;;;28.20;53.60;;;;;;5016453;28;20101;-68
2022/10/28 11:04:16;;;;;;;15.68;2.50;;;29.70;52.20;;;;;;5016303;28;20019;-68
2022/10/28 11:06:43;;;;;;;7.22;1.85;;;30.00;48.70;;;;;;5015507;28;20105;-68
2022/10/28 11:09:28;;;;;;;13.75;2.40;;;29.60;51.20;;;;;;5016297;28;20018;-68
2022/10/28 11:11:55;;;;;;;12.20;2.40;;;30.00;50.50;;;;;;5016100;28;20370;-68
2022/10/28 11:14:28;;;;;;;10.85;2.08;;;29.80;51.40;;;;;;5016285;28;20030;-68
2022/10/28 11:17:01;;;;;;;10.40;2.72;;;29.40;53.00;;;;;;5016327;28;20331;-68
2022/10/28 11:19:36;;;;;;;;;;;29.00;54.60;;;;;;5017470;28;20473;-68
2022/10/28 11:22:31;;;;;;;14.82;2.70;;;28.10;56.80;;;;;;5020134;28;19983;-68
2022/10/28 11:25:17;;;;;;;12.18;2.45;;;27.70;58.90;;;;;;5018825;28;20022;-68
2022/10/28 11:27:59;;;;;;;11.68;2.72;;;27.00;60.90;;;;;;5020087;28;20022;-68
2022/10/28 11:30:40;;;;;;;12.77;2.95;;;26.70;61.80;;;;;;5020240;28;20084;-68
2022/10/28 11:33:19;;;;;;;10.90;3.03;;;26.90;61.70;;;;;;5019960;28;20322;-68
2022/10/28 11:36:01;;;;;;;9.23;2.42;;;27.30;59.40;;;;;;5019174;28;20088;-68
2022/10/28 11:39:03;;;;;;;14.13;3.13;;;27.70;60.00;;;;;;5019936;28;20427;-68
2022/10/28 11:41:34;;;;;;;9.65;2.80;;;27.70;59.70;;;;;;5010290;28;20096;-68
2022/10/28 11:44:04;;;;;;;9.23;2.97;;;27.70;61.10;;;;;;5019890;28;20022;-68
2022/10/28 11:46:40;;;;;;;12.93;3.40;;;27.60;62.20;;;;;;5019798;28;20032;-68
2022/10/28 11:49:28;;;;;;;13.18;2.95;;;27.30;62.70;;;;;;5018852;28;20381;-68
2022/10/28 11:52:33;;;;;;;11.25;3.20;;;27.00;64.30;;;;;;5019218;28;20113;-68
2022/10/28 11:55:27;;;;;;;13.20;3.90;;;27.10;65.60;;;;;;5017597;28;20311;-68
2022/10/28 11:58:06;;;;;;;15.07;3.25;;;27.10;66.70;;;;;;5013817;28;20091;-68
2022/10/28 12:00:43;;;;;;;13.43;3.08;;;27.30;65.60;;;;;;5017516;28;20081;-68
2022/10/28 12:03:28;;;;;;;10.82;2.90;;;27.30;66.70;;;;;;5019407;28;20025;-68
2022/10/28 12:06:32;;;;;;;8.82;2.50;;;27.80;63.00;;;;;;5037330;28;20385;-68
2022/10/28 12:09:11;;;;;;;9.82;3.03;;;28.30;61.90;;;;;;5029820;28;20113;-68
2022/10/28 12:12:11;;;;;;;14.15;2.92;;;28.70;61.00;;;;;;5035793;28;20075;-68
2022/10/28 12:14:50;;;;;;;9.50;2.60;;;28.40;55.80;;;;;;5037573;28;20429;-68
2022/10/28 12:17:26;;;;;;;8.35;2.80;;;28.00;57.10;;;;;;5036639;28;20030;-68
2022/10/28 12:20:04;;;;;;;11.98;3.10;;;28.00;58.70;;;;;;5036571;28;20033;-68
2022/10/28 12:23:00;;;;;;;12.23;2.80;;;27.90;58.70;;;;;;5017825;28;20056;-68
2022/10/28 12:25:29;;;;;;;17.25;2.95;;;27.70;58.60;;;;;;4997637;28;20046;-68
2022/10/28 12:28:00;;;;;;;14.65;3.75;;;27.30;57.70;;;;;;4999133;28;20030;-68
2022/10/28 12:30:32;;;;;;;10.40;2.63;;;26.90;58.00;;;;;;5036932;28;20119;-68
2022/10/28 12:33:10;;;;;;;15.02;3.40;;;26.40;58.50;;;;;;5038699;28;20163;-68
2022/10/28 12:35:40;;;;;;;17.08;3.63;;;26.20;59.80;;;;;;5004155;28;20022;-68
2022/10/28 12:38:19;;;;;;;16.35;3.22;;;26.10;55.70;;;;;;5017945;28;20431;-68
2022/10/28 12:41:01;;;;;;;13.38;2.97;;;26.60;55.30;;;;;;5017547;28;20045;-66
2022/10/28 12:43:37;;;;;;;12.10;2.83;;;27.00;54.70;;;;;;5021148;28;20029;-66
2022/10/28 12:46:03;;;;;;;13.70;3.08;;;27.30;56.50;;;;;;5038207;28;20026;-66
2022/10/28 12:48:47;;;;;;;10.07;2.35;;;27.40;58.60;;;;;;5036768;28;20017;-67
2022/10/28 12:51:22;;;;;;;;;;;27.60;59.10;;;;;;5024776;28;20029;-68
2022/10/28 12:54:15;;;;;;;12.80;3.25;;;27.80;57.00;;;;;;5023485;28;19905;-68
2022/10/28 12:56:58;;;;;;;12.85;2.65;;;27.70;58.80;;;;;;5037316;28;20087;-67
2022/10/28 12:59:31;;;;;;;14.18;3.03;;;27.30;60.10;;;;;;5035276;28;20040;-68
2022/10/28 13:01:59;;;;;;;10.35;2.53;;;26.90;60.70;;;;;;5038265;28;20029;-68
2022/10/28 13:04:28;;;;;;;12.00;2.67;;;26.70;62.30;;;;;;5034870;28;20032;-68
2022/10/28 13:07:15;;;;;;;13.82;2.85;;;26.60;61.70;;;;;;5029064;28;20537;-68
2022/10/28 13:10:18;;;;;;;13.77;3.17;;;26.70;63.20;;;;;;5034389;28;20100;-68